sensor_id;sensor_type;location;lat;lon;timestamp;pressure;altitude;pressure_sealevel;temperature;humidity
50282;BME280;36176;51.506;10.272;2023-11-19T00:01:35;104367.34;;;-145.31;0.00
50282;BME280;36176;51.506;10.272;2023-11-19T00:04:02;104367.34;;;-145.31;0.00
50282;BME280;36176;51.506;10.272;2023-11-19T00:06:30;104367.34;;;-145.31;0.00
50282;BME280;36176;51.506;10.272;2023-11-19T00:08:57;104367.34;;;-145.31;0.00
50282;BME280;36176;51.506;10.272;2023-11-19T00:11:24;104367.34;;;-145.31;0.00
50282;BME280;36176;51.506;10.272;2023-11-19T00:13:51;104367.34;;;-145.31;0.00
50282;BME280;36176;51.506;10.272;2023-11-19T00:16:19;104367.34;;;-145.31;0.00
50282;BME280;36176;51.506;10.272;2023-11-19T00:42:12;104367.34;;;-145.31;0.00
50282;BME280;36176;51.506;10.272;2023-11-19T00:46:03;104367.34;;;-145.31;0.00
50282;BME280;36176;51.506;10.272;2023-11-19T00:56:43;104367.34;;;-145.31;0.00
50282;BME280;36176;51.506;10.272;2023-11-19T01:07:44;104367.34;;;-145.31;0.00
50282;BME280;36176;51.506;10.272;2023-11-19T01:11:32;104367.34;;;-145.31;0.00
50282;BME280;36176;51.506;10.272;2023-11-19T01:18:40;104367.34;;;-145.31;0.00
50282;BME280;36176;51.506;10.272;2023-11-19T01:34:18;104367.34;;;-145.31;0.00
50282;BME280;36176;51.506;10.272;2023-11-19T01:42:12;104367.34;;;-145.31;0.00
50282;BME280;36176;51.506;10.272;2023-11-19T05:59:51;104367.34;;;-145.31;0.00
50282;BME280;36176;51.506;10.272;2023-11-19T06:02:18;104367.34;;;-145.31;0.00
50282;BME280;36176;51.506;10.272;2023-11-19T06:04:45;104367.34;;;-145.31;0.00
50282;BME280;36176;51.506;10.272;2023-11-19T06:07:12;104367.34;;;-145.31;0.00
50282;BME280;36176;51.506;10.272;2023-11-19T06:09:39;104367.34;;;-145.31;0.00
50282;BME280;36176;51.506;10.272;2023-11-19T06:12:07;104367.34;;;-145.31;0.00
50282;BME280;36176;51.506;10.272;2023-11-19T06:14:34;104367.34;;;-145.31;0.00
50282;BME280;36176;51.506;10.272;2023-11-19T06:17:01;104367.34;;;-145.31;0.00
50282;BME280;36176;51.506;10.272;2023-11-19T06:19:28;104367.34;;;-145.31;0.00
50282;BME280;36176;51.506;10.272;2023-11-19T06:21:57;104367.34;;;-145.31;0.00
50282;BME280;36176;51.506;10.272;2023-11-19T06:24:24;104367.34;;;-145.31;0.00
50282;BME280;36176;51.506;10.272;2023-11-19T06:26:51;104367.34;;;-145.31;0.00
50282;BME280;36176;51.506;10.272;2023-11-19T06:29:18;104367.34;;;-145.31;0.00
50282;BME280;36176;51.506;10.272;2023-11-19T06:31:45;104367.34;;;-145.31;0.00
50282;BME280;36176;51.506;10.272;2023-11-19T06:34:13;104367.34;;;-145.31;0.00
50282;BME280;36176;51.506;10.272;2023-11-19T06:36:40;104367.34;;;-145.31;0.00
50282;BME280;36176;51.506;10.272;2023-11-19T06:39:07;104367.34;;;-145.31;0.00
50282;BME280;36176;51.506;10.272;2023-11-19T06:41:34;104367.34;;;-145.31;0.00
50282;BME280;36176;51.506;10.272;2023-11-19T06:44:01;104367.34;;;-145.31;0.00
50282;BME280;36176;51.506;10.272;2023-11-19T06:46:29;104367.34;;;-145.31;0.00
50282;BME280;36176;51.506;10.272;2023-11-19T06:48:56;104367.34;;;-145.31;0.00
50282;BME280;36176;51.506;10.272;2023-11-19T06:51:23;104367.34;;;-145.31;0.00
50282;BME280;36176;51.506;10.272;2023-11-19T06:53:50;104367.34;;;-145.31;0.00
50282;BME280;36176;51.506;10.272;2023-11-19T07:55:07;98723.88;;;10.66;100.00
50282;BME280;36176;51.506;10.272;2023-11-19T07:57:35;98716.56;;;10.55;100.00
50282;BME280;36176;51.506;10.272;2023-11-19T08:00:02;98706.44;;;10.47;100.00
50282;BME280;36176;51.506;10.272;2023-11-19T08:02:29;98702.34;;;10.41;100.00
50282;BME280;36176;51.506;10.272;2023-11-19T08:04:57;98699.59;;;10.43;100.00
50282;BME280;36176;51.506;10.272;2023-11-19T08:07:25;98696.88;;;10.45;100.00
50282;BME280;36176;51.506;10.272;2023-11-19T08:09:53;98705.38;;;10.50;100.00
50282;BME280;36176;51.506;10.272;2023-11-19T08:12:20;98713.25;;;10.51;100.00
50282;BME280;36176;51.506;10.272;2023-11-19T08:14:48;98719.22;;;10.55;100.00
50282;BME280;36176;51.506;10.272;2023-11-19T08:17:17;98708.53;;;10.56;100.00
50282;BME280;36176;51.506;10.272;2023-11-19T08:19:46;98696.91;;;10.59;100.00
50282;BME280;36176;51.506;10.272;2023-11-19T08:22:13;98698.50;;;10.61;100.00
50282;BME280;36176;51.506;10.272;2023-11-19T08:24:42;98715.06;;;10.65;100.00
50282;BME280;36176;51.506;10.272;2023-11-19T08:27:09;98710.53;;;10.67;100.00
50282;BME280;36176;51.506;10.272;2023-11-19T08:29:37;98704.78;;;10.75;100.00
50282;BME280;36176;51.506;10.272;2023-11-19T08:32:04;98709.78;;;10.79;100.00
50282;BME280;36176;51.506;10.272;2023-11-19T08:34:31;98711.31;;;10.83;100.00
50282;BME280;36176;51.506;10.272;2023-11-19T08:36:59;98715.97;;;10.80;100.00
50282;BME280;36176;51.506;10.272;2023-11-19T08:39:26;98716.13;;;10.77;100.00
50282;BME280;36176;51.506;10.272;2023-11-19T08:41:54;98718.13;;;10.73;100.00
50282;BME280;36176;51.506;10.272;2023-11-19T08:44:21;98714.72;;;10.71;100.00
50282;BME280;36176;51.506;10.272;2023-11-19T08:46:49;98716.69;;;10.68;100.00
50282;BME280;36176;51.506;10.272;2023-11-19T08:49:17;98706.84;;;10.70;100.00
50282;BME280;36176;51.506;10.272;2023-11-19T08:51:44;98731.38;;;10.73;100.00
50282;BME280;36176;51.506;10.272;2023-11-19T08:54:11;98735.63;;;10.76;100.00
50282;BME280;36176;51.506;10.272;2023-11-19T08:56:38;98731.25;;;10.75;100.00
50282;BME280;36176;51.506;10.272;2023-11-19T08:59:05;98745.97;;;10.80;100.00
50282;BME280;36176;51.506;10.272;2023-11-19T09:01:33;98749.28;;;10.84;100.00
50282;BME280;36176;51.506;10.272;2023-11-19T09:04:00;98748.16;;;11.02;100.00
50282;BME280;36176;51.506;10.272;2023-11-19T09:06:29;98743.91;;;11.14;100.00
50282;BME280;36176;51.506;10.272;2023-11-19T09:08:57;98741.75;;;11.21;100.00
50282;BME280;36176;51.506;10.272;2023-11-19T09:11:24;98749.50;;;11.24;100.00
50282;BME280;36176;51.506;10.272;2023-11-19T09:13:51;98745.91;;;11.25;100.00
50282;BME280;36176;51.506;10.272;2023-11-19T09:16:18;98744.22;;;11.24;100.00
50282;BME280;36176;51.506;10.272;2023-11-19T09:18:46;98750.63;;;11.20;100.00
50282;BME280;36176;51.506;10.272;2023-11-19T09:21:13;98754.34;;;11.17;100.00
50282;BME280;36176;51.506;10.272;2023-11-19T09:23:41;98751.97;;;11.13;99.80
50282;BME280;36176;51.506;10.272;2023-11-19T09:26:08;98748.53;;;11.11;98.90
50282;BME280;36176;51.506;10.272;2023-11-19T09:28:36;98754.72;;;11.11;98.92
50282;BME280;36176;51.506;10.272;2023-11-19T09:31:13;98754.59;;;11.13;98.61
50282;BME280;36176;51.506;10.272;2023-11-19T09:33:42;98753.22;;;11.21;98.26
50282;BME280;36176;51.506;10.272;2023-11-19T09:36:12;98775.19;;;11.38;98.65
50282;BME280;36176;51.506;10.272;2023-11-19T09:38:40;98778.41;;;11.57;98.24
50282;BME280;36176;51.506;10.272;2023-11-19T09:41:09;98772.03;;;12.03;98.56
50282;BME280;36176;51.506;10.272;2023-11-19T09:43:39;98767.00;;;12.25;96.87
50282;BME280;36176;51.506;10.272;2023-11-19T09:46:09;98770.75;;;12.63;97.00
50282;BME280;36176;51.506;10.272;2023-11-19T09:48:39;98783.16;;;13.02;96.13
50282;BME280;36176;51.506;10.272;2023-11-19T09:51:10;98781.50;;;13.27;95.56
50282;BME280;36176;51.506;10.272;2023-11-19T09:53:39;98786.09;;;13.37;95.11
50282;BME280;36176;51.506;10.272;2023-11-19T09:56:12;98791.50;;;13.36;92.39
50282;BME280;36176;51.506;10.272;2023-11-19T09:58:42;98785.03;;;13.27;91.66
50282;BME280;36176;51.506;10.272;2023-11-19T10:01:09;98791.09;;;13.29;92.24
50282;BME280;36176;51.506;10.272;2023-11-19T10:03:43;98785.84;;;13.15;91.05
50282;BME280;36176;51.506;10.272;2023-11-19T10:06:14;98776.31;;;12.85;84.81
50282;BME280;36176;51.506;10.272;2023-11-19T10:08:43;98779.78;;;12.60;86.23
50282;BME280;36176;51.506;10.272;2023-11-19T10:11:10;98787.38;;;12.39;86.75
50282;BME280;36176;51.506;10.272;2023-11-19T10:13:37;98780.97;;;12.29;85.41
50282;BME280;36176;51.506;10.272;2023-11-19T10:16:12;98793.03;;;12.20;86.47
50282;BME280;36176;51.506;10.272;2023-11-19T10:18:47;98790.66;;;12.16;86.76
50282;BME280;36176;51.506;10.272;2023-11-19T10:21:14;98793.91;;;12.06;86.30
50282;BME280;36176;51.506;10.272;2023-11-19T10:23:57;98793.25;;;12.03;84.80
50282;BME280;36176;51.506;10.272;2023-11-19T10:26:24;98794.19;;;12.02;85.63
50282;BME280;36176;51.506;10.272;2023-11-19T10:28:51;98790.81;;;12.00;84.63
50282;BME280;36176;51.506;10.272;2023-11-19T10:31:20;98787.41;;;11.98;85.41
50282;BME280;36176;51.506;10.272;2023-11-19T10:33:47;98784.75;;;11.98;85.58
50282;BME280;36176;51.506;10.272;2023-11-19T10:36:15;98785.69;;;11.97;85.35
50282;BME280;36176;51.506;10.272;2023-11-19T10:38:52;98775.06;;;11.97;85.71
50282;BME280;36176;51.506;10.272;2023-11-19T10:41:30;98767.00;;;11.98;86.50
50282;BME280;36176;51.506;10.272;2023-11-19T10:44:01;98773.53;;;12.07;86.19
50282;BME280;36176;51.506;10.272;2023-11-19T10:46:44;98770.38;;;12.15;85.66
50282;BME280;36176;51.506;10.272;2023-11-19T10:49:17;98769.13;;;12.20;85.62
50282;BME280;36176;51.506;10.272;2023-11-19T10:51:49;98766.09;;;12.26;84.44
50282;BME280;36176;51.506;10.272;2023-11-19T10:54:18;98764.34;;;12.25;83.75
50282;BME280;36176;51.506;10.272;2023-11-19T10:56:54;98743.31;;;12.22;82.14
50282;BME280;36176;51.506;10.272;2023-11-19T10:59:22;98761.16;;;12.20;80.78
50282;BME280;36176;51.506;10.272;2023-11-19T11:01:55;98755.63;;;12.23;81.15
50282;BME280;36176;51.506;10.272;2023-11-19T11:04:24;98756.94;;;12.30;80.85
50282;BME280;36176;51.506;10.272;2023-11-19T11:17:43;98745.84;;;13.04;75.10
50282;BME280;36176;51.506;10.272;2023-11-19T11:20:12;98751.16;;;13.16;74.67
50282;BME280;36176;51.506;10.272;2023-11-19T11:23:00;98754.38;;;13.34;75.45
50282;BME280;36176;51.506;10.272;2023-11-19T11:25:46;98754.69;;;13.55;75.23
50282;BME280;36176;51.506;10.272;2023-11-19T11:28:33;98747.41;;;13.70;74.34
50282;BME280;36176;51.506;10.272;2023-11-19T11:31:12;98746.44;;;13.84;74.18
50282;BME280;36176;51.506;10.272;2023-11-19T11:36:38;98756.91;;;13.74;71.68
50282;BME280;36176;51.506;10.272;2023-11-19T11:39:09;98755.97;;;13.50;71.75
50282;BME280;36176;51.506;10.272;2023-11-19T11:41:36;98762.69;;;13.30;72.21
50282;BME280;36176;51.506;10.272;2023-11-19T11:44:04;98761.91;;;13.15;72.65
50282;BME280;36176;51.506;10.272;2023-11-19T11:52:20;98770.31;;;12.96;72.95
50282;BME280;36176;51.506;10.272;2023-11-19T11:54:49;98771.22;;;12.82;73.40
50282;BME280;36176;51.506;10.272;2023-11-19T11:57:16;98772.81;;;12.72;73.76
50282;BME280;36176;51.506;10.272;2023-11-19T11:59:48;98770.69;;;12.64;74.09
50282;BME280;36176;51.506;10.272;2023-11-19T12:02:18;98775.22;;;12.62;75.25
50282;BME280;36176;51.506;10.272;2023-11-19T12:04:51;98768.63;;;12.55;74.65
50282;BME280;36176;51.506;10.272;2023-11-19T12:07:21;98759.78;;;12.54;74.68
50282;BME280;36176;51.506;10.272;2023-11-19T12:09:53;98756.09;;;12.57;74.82
50282;BME280;36176;51.506;10.272;2023-11-19T12:12:23;98755.97;;;12.59;74.82
50282;BME280;36176;51.506;10.272;2023-11-19T12:15:00;98760.66;;;12.55;76.19
50282;BME280;36176;51.506;10.272;2023-11-19T12:20:03;98760.22;;;12.21;80.23
50282;BME280;36176;51.506;10.272;2023-11-19T12:22:31;98765.16;;;12.13;80.70
50282;BME280;36176;51.506;10.272;2023-11-19T12:24:58;98769.06;;;12.07;81.69
50282;BME280;36176;51.506;10.272;2023-11-19T12:27:26;98758.75;;;12.03;82.57
50282;BME280;36176;51.506;10.272;2023-11-19T12:29:53;98761.91;;;11.95;82.76
50282;BME280;36176;51.506;10.272;2023-11-19T12:32:20;98749.09;;;11.87;83.13
50282;BME280;36176;51.506;10.272;2023-11-19T12:34:48;98756.38;;;11.84;82.84
50282;BME280;36176;51.506;10.272;2023-11-19T12:37:15;98760.09;;;11.81;83.21
50282;BME280;36176;51.506;10.272;2023-11-19T12:39:42;98750.31;;;11.82;83.69
50282;BME280;36176;51.506;10.272;2023-11-19T12:42:09;98758.47;;;11.79;83.27
50282;BME280;36176;51.506;10.272;2023-11-19T12:44:37;98767.56;;;11.75;83.65
50282;BME280;36176;51.506;10.272;2023-11-19T12:47:06;98772.13;;;11.73;83.33
50282;BME280;36176;51.506;10.272;2023-11-19T12:49:34;98773.38;;;11.67;84.74
50282;BME280;36176;51.506;10.272;2023-11-19T12:52:01;98781.53;;;11.64;85.65
50282;BME280;36176;51.506;10.272;2023-11-19T12:54:34;98775.75;;;11.57;87.56
50282;BME280;36176;51.506;10.272;2023-11-19T12:57:02;98778.00;;;11.49;88.30
50282;BME280;36176;51.506;10.272;2023-11-19T12:59:30;98777.66;;;11.41;88.36
50282;BME280;36176;51.506;10.272;2023-11-19T13:01:57;98760.97;;;11.39;89.34
50282;BME280;36176;51.506;10.272;2023-11-19T13:04:31;98760.88;;;11.40;89.31
50282;BME280;36176;51.506;10.272;2023-11-19T13:06:59;98760.88;;;11.55;90.15
50282;BME280;36176;51.506;10.272;2023-11-19T13:09:29;98754.97;;;11.78;90.13
50282;BME280;36176;51.506;10.272;2023-11-19T13:11:56;98748.50;;;11.97;89.61
50282;BME280;36176;51.506;10.272;2023-11-19T13:14:23;98742.69;;;12.19;89.58
50282;BME280;36176;51.506;10.272;2023-11-19T13:17:02;98745.84;;;12.38;89.69
50282;BME280;36176;51.506;10.272;2023-11-19T13:19:29;98751.72;;;12.56;89.00
50282;BME280;36176;51.506;10.272;2023-11-19T13:21:56;98741.75;;;12.72;88.57
50282;BME280;36176;51.506;10.272;2023-11-19T13:24:24;98737.81;;;12.78;85.57
50282;BME280;36176;51.506;10.272;2023-11-19T13:26:51;98737.72;;;12.80;85.97
50282;BME280;36176;51.506;10.272;2023-11-19T13:29:19;98736.22;;;12.75;85.76
50282;BME280;36176;51.506;10.272;2023-11-19T13:31:46;98736.22;;;12.75;85.95
50282;BME280;36176;51.506;10.272;2023-11-19T13:34:13;98731.75;;;12.76;86.05
50282;BME280;36176;51.506;10.272;2023-11-19T13:36:40;98729.22;;;12.87;86.14
50282;BME280;36176;51.506;10.272;2023-11-19T13:39:19;98733.59;;;12.88;85.83
50282;BME280;36176;51.506;10.272;2023-11-19T13:41:46;98727.72;;;12.83;85.43
50282;BME280;36176;51.506;10.272;2023-11-19T13:44:13;98718.06;;;12.82;85.65
50282;BME280;36176;51.506;10.272;2023-11-19T13:46:41;98720.09;;;12.79;85.07
50282;BME280;36176;51.506;10.272;2023-11-19T13:49:08;98711.25;;;12.78;85.05
50282;BME280;36176;51.506;10.272;2023-11-19T13:51:35;98708.19;;;12.71;84.23
50282;BME280;36176;51.506;10.272;2023-11-19T13:54:03;98705.16;;;12.63;84.22
50282;BME280;36176;51.506;10.272;2023-11-19T13:56:31;98704.09;;;12.53;84.20
50282;BME280;36176;51.506;10.272;2023-11-19T13:58:58;98709.06;;;12.45;84.49
50282;BME280;36176;51.506;10.272;2023-11-19T14:01:26;98704.06;;;12.40;84.96
50282;BME280;36176;51.506;10.272;2023-11-19T14:03:53;98697.03;;;12.26;85.52
50282;BME280;36176;51.506;10.272;2023-11-19T14:06:21;98704.28;;;12.10;85.65
50282;BME280;36176;51.506;10.272;2023-11-19T14:08:48;98703.50;;;11.95;86.35
50282;BME280;36176;51.506;10.272;2023-11-19T14:11:15;98706.63;;;11.87;86.56
50282;BME280;36176;51.506;10.272;2023-11-19T14:13:42;98707.94;;;11.80;86.14
50282;BME280;36176;51.506;10.272;2023-11-19T14:16:09;98711.75;;;11.76;86.70
50282;BME280;36176;51.506;10.272;2023-11-19T14:18:37;98713.66;;;11.74;86.91
50282;BME280;36176;51.506;10.272;2023-11-19T14:21:05;98709.41;;;11.71;86.81
50282;BME280;36176;51.506;10.272;2023-11-19T14:23:33;98704.38;;;11.67;87.12
50282;BME280;36176;51.506;10.272;2023-11-19T14:26:00;98702.59;;;11.53;87.78
50282;BME280;36176;51.506;10.272;2023-11-19T14:28:27;98701.56;;;11.41;88.78
50282;BME280;36176;51.506;10.272;2023-11-19T14:30:54;98708.31;;;11.33;89.50
50282;BME280;36176;51.506;10.272;2023-11-19T14:33:21;98704.72;;;11.19;90.00
50282;BME280;36176;51.506;10.272;2023-11-19T14:35:48;98704.34;;;11.11;90.81
50282;BME280;36176;51.506;10.272;2023-11-19T14:38:16;98707.16;;;11.08;91.65
50282;BME280;36176;51.506;10.272;2023-11-19T14:40:43;98708.22;;;11.05;92.15
50282;BME280;36176;51.506;10.272;2023-11-19T14:43:10;98711.81;;;11.04;92.50
50282;BME280;36176;51.506;10.272;2023-11-19T14:45:37;98713.72;;;11.02;92.27
50282;BME280;36176;51.506;10.272;2023-11-19T14:48:18;98716.63;;;10.98;92.03
50282;BME280;36176;51.506;10.272;2023-11-19T14:50:45;98707.06;;;10.95;90.71
50282;BME280;36176;51.506;10.272;2023-11-19T14:53:13;98699.59;;;10.88;89.08
50282;BME280;36176;51.506;10.272;2023-11-19T14:55:40;98698.06;;;10.83;89.13
50282;BME280;36176;51.506;10.272;2023-11-19T14:58:07;98711.41;;;10.82;88.68
50282;BME280;36176;51.506;10.272;2023-11-19T15:00:38;98708.03;;;10.80;88.71
50282;BME280;36176;51.506;10.272;2023-11-19T15:03:05;98706.28;;;10.79;89.03
50282;BME280;36176;51.506;10.272;2023-11-19T15:05:33;98703.66;;;10.79;88.43
50282;BME280;36176;51.506;10.272;2023-11-19T15:08:00;98695.69;;;10.79;88.85
50282;BME280;36176;51.506;10.272;2023-11-19T15:10:27;98685.28;;;10.76;89.24
50282;BME280;36176;51.506;10.272;2023-11-19T15:12:54;98683.75;;;10.72;88.94
50282;BME280;36176;51.506;10.272;2023-11-19T15:15:21;98688.75;;;10.62;88.34
50282;BME280;36176;51.506;10.272;2023-11-19T15:17:51;98691.19;;;10.51;88.25
50282;BME280;36176;51.506;10.272;2023-11-19T15:20:19;98697.72;;;10.45;87.47
50282;BME280;36176;51.506;10.272;2023-11-19T15:22:47;98693.53;;;10.41;86.27
50282;BME280;36176;51.506;10.272;2023-11-19T15:25:14;98701.59;;;10.39;86.34
50282;BME280;36176;51.506;10.272;2023-11-19T15:27:41;98703.53;;;10.36;85.85
50282;BME280;36176;51.506;10.272;2023-11-19T15:30:08;98710.63;;;10.35;85.85
50282;BME280;36176;51.506;10.272;2023-11-19T15:32:36;98702.00;;;10.32;85.89
50282;BME280;36176;51.506;10.272;2023-11-19T15:35:03;98710.13;;;10.29;86.71
50282;BME280;36176;51.506;10.272;2023-11-19T15:37:31;98713.63;;;10.29;85.72
50282;BME280;36176;51.506;10.272;2023-11-19T15:39:58;98719.63;;;10.33;85.90
50282;BME280;36176;51.506;10.272;2023-11-19T15:42:25;98720.47;;;10.33;86.44
50282;BME280;36176;51.506;10.272;2023-11-19T15:44:52;98721.31;;;10.34;86.22
50282;BME280;36176;51.506;10.272;2023-11-19T15:47:20;98714.97;;;10.36;86.82
50282;BME280;36176;51.506;10.272;2023-11-19T15:49:47;98713.22;;;10.37;86.51
50282;BME280;36176;51.506;10.272;2023-11-19T15:52:15;98704.13;;;10.41;86.05
50282;BME280;36176;51.506;10.272;2023-11-19T15:54:42;98705.66;;;10.45;86.19
50282;BME280;36176;51.506;10.272;2023-11-19T15:57:09;98704.69;;;10.46;86.05
50282;BME280;36176;51.506;10.272;2023-11-19T15:59:37;98705.47;;;10.48;86.17
50282;BME280;36176;51.506;10.272;2023-11-19T16:02:04;98707.09;;;10.51;86.19
50282;BME280;36176;51.506;10.272;2023-11-19T16:04:31;98706.94;;;10.54;85.84
50282;BME280;36176;51.506;10.272;2023-11-19T16:06:58;98715.59;;;10.56;85.73
50282;BME280;36176;51.506;10.272;2023-11-19T16:09:29;98713.63;;;10.59;85.90
50282;BME280;36176;51.506;10.272;2023-11-19T16:11:56;98710.03;;;10.60;85.25
50282;BME280;36176;51.506;10.272;2023-11-19T16:14:24;98706.34;;;10.63;85.12
50282;BME280;36176;51.506;10.272;2023-11-19T16:16:51;98709.69;;;10.67;85.20
50282;BME280;36176;51.506;10.272;2023-11-19T16:19:19;98703.63;;;10.64;84.57
50282;BME280;36176;51.506;10.272;2023-11-19T16:21:46;98713.28;;;10.66;84.42
50282;BME280;36176;51.506;10.272;2023-11-19T16:24:14;98704.38;;;10.67;84.07
50282;BME280;36176;51.506;10.272;2023-11-19T16:26:42;98713.94;;;10.69;83.26
50282;BME280;36176;51.506;10.272;2023-11-19T16:29:09;98727.00;;;10.72;82.72
50282;BME280;36176;51.506;10.272;2023-11-19T16:31:37;98730.34;;;10.76;82.99
50282;BME280;36176;51.506;10.272;2023-11-19T16:34:04;98733.75;;;10.78;83.24
50282;BME280;36176;51.506;10.272;2023-11-19T16:36:31;98726.84;;;10.75;82.72
50282;BME280;36176;51.506;10.272;2023-11-19T16:38:58;98726.91;;;10.74;83.46
50282;BME280;36176;51.506;10.272;2023-11-19T16:41:28;98730.41;;;10.74;83.07
50282;BME280;36176;51.506;10.272;2023-11-19T16:44:08;98734.09;;;10.72;83.40
50282;BME280;36176;51.506;10.272;2023-11-19T16:46:36;98739.47;;;10.70;83.95
50282;BME280;36176;51.506;10.272;2023-11-19T16:49:03;98743.28;;;10.66;83.96
50282;BME280;36176;51.506;10.272;2023-11-19T16:51:31;98737.28;;;10.62;84.33
50282;BME280;36176;51.506;10.272;2023-11-19T16:53:58;98734.84;;;10.59;84.40
50282;BME280;36176;51.506;10.272;2023-11-19T16:56:25;98733.31;;;10.55;84.60
50282;BME280;36176;51.506;10.272;2023-11-19T16:58:53;98739.56;;;10.54;84.11
50282;BME280;36176;51.506;10.272;2023-11-19T17:01:20;98735.03;;;10.56;84.14
50282;BME280;36176;51.506;10.272;2023-11-19T17:03:47;98740.22;;;10.58;84.13
50282;BME280;36176;51.506;10.272;2023-11-19T17:06:14;98742.00;;;10.57;84.79
50282;BME280;36176;51.506;10.272;2023-11-19T17:08:41;98736.72;;;10.57;84.20
50282;BME280;36176;51.506;10.272;2023-11-19T17:11:09;98744.66;;;10.57;84.55
50282;BME280;36176;51.506;10.272;2023-11-19T17:13:36;98735.03;;;10.56;84.67
50282;BME280;36176;51.506;10.272;2023-11-19T17:16:04;98737.56;;;10.58;84.19
50282;BME280;36176;51.506;10.272;2023-11-19T17:18:34;98742.59;;;10.62;84.35
50282;BME280;36176;51.506;10.272;2023-11-19T17:21:01;98743.44;;;10.63;84.16
50282;BME280;36176;51.506;10.272;2023-11-19T17:23:28;98735.22;;;10.68;84.70
50282;BME280;36176;51.506;10.272;2023-11-19T17:25:56;98745.81;;;10.68;84.46
50282;BME280;36176;51.506;10.272;2023-11-19T17:28:23;98742.25;;;10.69;84.66
50282;BME280;36176;51.506;10.272;2023-11-19T17:30:50;98736.09;;;10.68;84.80
50282;BME280;36176;51.506;10.272;2023-11-19T17:33:17;98737.88;;;10.68;84.86
50282;BME280;36176;51.506;10.272;2023-11-19T17:35:45;98745.81;;;10.68;84.82
50282;BME280;36176;51.506;10.272;2023-11-19T17:38:13;98742.31;;;10.67;85.07
50282;BME280;36176;51.506;10.272;2023-11-19T17:40:43;98741.56;;;10.65;85.14
50282;BME280;36176;51.506;10.272;2023-11-19T17:43:10;98736.25;;;10.65;85.28
50282;BME280;36176;51.506;10.272;2023-11-19T17:45:38;98729.06;;;10.67;85.46
50282;BME280;36176;51.506;10.272;2023-11-19T17:48:06;98734.19;;;10.70;84.98
50282;BME280;36176;51.506;10.272;2023-11-19T17:50:33;98740.25;;;10.72;84.98
50282;BME280;36176;51.506;10.272;2023-11-19T17:53:00;98749.06;;;10.73;85.14
50282;BME280;36176;51.506;10.272;2023-11-19T17:55:27;98742.91;;;10.72;85.26
50282;BME280;36176;51.506;10.272;2023-11-19T17:57:54;98752.47;;;10.75;84.51
50282;BME280;36176;51.506;10.272;2023-11-19T18:00:23;98744.50;;;10.75;84.58
50282;BME280;36176;51.506;10.272;2023-11-19T18:02:50;98739.31;;;10.73;84.41
50282;BME280;36176;51.506;10.272;2023-11-19T18:05:17;98738.47;;;10.73;84.72
50282;BME280;36176;51.506;10.272;2023-11-19T18:07:44;98735.72;;;10.74;84.60
50282;BME280;36176;51.506;10.272;2023-11-19T18:10:12;98732.88;;;10.77;84.51
50282;BME280;36176;51.506;10.272;2023-11-19T18:12:39;98730.22;;;10.77;84.09
50282;BME280;36176;51.506;10.272;2023-11-19T18:15:47;98745.28;;;10.77;84.67
50282;BME280;36176;51.506;10.272;2023-11-19T18:18:17;98740.09;;;10.75;84.65
50282;BME280;36176;51.506;10.272;2023-11-19T18:20:45;98736.47;;;10.76;85.15
50282;BME280;36176;51.506;10.272;2023-11-19T19:38:45;98747.56;;;10.07;98.03
50282;BME280;36176;51.506;10.272;2023-11-19T19:53:13;98759.34;;;9.85;100.00
50282;BME280;36176;51.506;10.272;2023-11-19T20:03:35;98763.00;;;9.83;100.00
50282;BME280;36176;51.506;10.272;2023-11-19T21:07:27;98735.03;;;9.63;100.00
50282;BME280;36176;51.506;10.272;2023-11-19T21:14:01;98738.59;;;9.62;100.00
50282;BME280;36176;51.506;10.272;2023-11-19T21:28:22;98730.75;;;9.60;100.00
50282;BME280;36176;51.506;10.272;2023-11-19T21:35:02;98733.66;;;9.55;100.00
50282;BME280;36176;51.506;10.272;2023-11-19T21:37:29;98734.69;;;9.53;100.00
50282;BME280;36176;51.506;10.272;2023-11-19T21:39:56;98716.16;;;9.53;100.00
50282;BME280;36176;51.506;10.272;2023-11-19T21:46:40;98711.13;;;9.48;100.00
50282;BME280;36176;51.506;10.272;2023-11-19T21:49:08;98710.25;;;9.48;100.00
50282;BME280;36176;51.506;10.272;2023-11-19T22:51:24;98662.84;;;9.61;100.00
50282;BME280;36176;51.506;10.272;2023-11-19T22:53:52;98666.25;;;9.63;100.00
50282;BME280;36176;51.506;10.272;2023-11-19T22:56:23;98663.50;;;9.64;100.00
50282;BME280;36176;51.506;10.272;2023-11-19T22:58:50;98657.28;;;9.65;100.00
50282;BME280;36176;51.506;10.272;2023-11-19T23:01:19;98655.25;;;9.70;100.00
50282;BME280;36176;51.506;10.272;2023-11-19T23:03:47;98651.56;;;9.73;100.00
50282;BME280;36176;51.506;10.272;2023-11-19T23:06:15;98661.19;;;9.74;100.00
50282;BME280;36176;51.506;10.272;2023-11-19T23:08:42;98665.72;;;9.72;100.00
50282;BME280;36176;51.506;10.272;2023-11-19T23:11:09;98665.47;;;9.76;100.00
50282;BME280;36176;51.506;10.272;2023-11-19T23:13:36;98663.41;;;9.82;100.00
50282;BME280;36176;51.506;10.272;2023-11-19T23:16:05;98664.16;;;9.84;100.00
50282;BME280;36176;51.506;10.272;2023-11-19T23:18:32;98659.66;;;9.86;100.00
50282;BME280;36176;51.506;10.272;2023-11-19T23:20:59;98654.28;;;9.87;100.00
50282;BME280;36176;51.506;10.272;2023-11-19T23:23:27;98664.75;;;9.89;100.00
50282;BME280;36176;51.506;10.272;2023-11-19T23:25:54;98655.97;;;9.88;100.00
50282;BME280;36176;51.506;10.272;2023-11-19T23:28:21;98653.25;;;9.90;100.00
50282;BME280;36176;51.506;10.272;2023-11-19T23:30:48;98664.69;;;9.90;100.00
50282;BME280;36176;51.506;10.272;2023-11-19T23:33:15;98669.03;;;9.91;99.99
50282;BME280;36176;51.506;10.272;2023-11-19T23:35:42;98649.50;;;9.94;100.00